createdAt,value
2019-01-19T00:00:40.546Z,946.64
2019-01-19T00:01:40.440Z,946.68
2019-01-19T00:02:40.328Z,946.63
2019-01-19T00:03:40.223Z,946.61
2019-01-19T00:04:40.132Z,946.59
2019-01-19T00:05:40.003Z,946.61
2019-01-19T00:06:39.895Z,946.59
2019-01-19T00:07:39.785Z,946.61
2019-01-19T00:08:39.681Z,946.58
2019-01-19T00:09:39.597Z,946.58
2019-01-19T00:10:39.461Z,946.56
2019-01-19T00:11:39.353Z,946.53
2019-01-19T00:12:39.252Z,946.54
2019-01-19T00:13:39.133Z,946.53
2019-01-19T00:14:39.045Z,946.55
2019-01-19T00:15:38.917Z,946.50
2019-01-19T00:16:38.814Z,946.50
2019-01-19T00:17:38.703Z,946.53
2019-01-19T00:18:38.592Z,946.52
2019-01-19T00:19:38.512Z,946.50
2019-01-19T00:20:38.376Z,946.54
2019-01-19T00:21:38.265Z,946.52
2019-01-19T00:22:38.161Z,946.50
2019-01-19T00:23:38.053Z,946.48
2019-01-19T00:24:37.963Z,946.48
2019-01-19T00:25:37.837Z,946.45
2019-01-19T00:26:37.727Z,946.41
2019-01-19T00:27:37.618Z,946.45
2019-01-19T00:28:37.506Z,946.46
2019-01-19T00:29:37.423Z,946.39
2019-01-19T00:30:37.293Z,946.42
2019-01-19T00:31:37.183Z,946.39
2019-01-19T00:32:37.082Z,946.40
2019-01-19T00:33:36.968Z,946.41
2019-01-19T00:34:36.878Z,946.43
2019-01-19T00:35:36.766Z,946.39
2019-01-19T00:36:36.641Z,946.37
2019-01-19T00:37:36.633Z,946.37
2019-01-19T00:38:36.426Z,946.31
2019-01-19T00:39:36.338Z,946.31
2019-01-19T00:40:36.208Z,946.28
2019-01-19T00:41:36.101Z,946.29
2019-01-19T00:42:35.992Z,946.32
2019-01-19T00:43:35.885Z,946.30
2019-01-19T00:44:35.885Z,946.26
2019-01-19T00:45:35.669Z,946.29
2019-01-19T00:46:35.558Z,946.29
2019-01-19T00:47:35.452Z,946.26
2019-01-19T00:48:35.345Z,946.30
2019-01-19T00:49:35.256Z,946.29
2019-01-19T00:50:35.127Z,946.27
2019-01-19T00:51:35.119Z,946.24
2019-01-19T00:52:34.908Z,946.26
2019-01-19T00:53:34.802Z,946.27
2019-01-19T00:54:34.713Z,946.28
2019-01-19T00:55:34.586Z,946.28
2019-01-19T00:56:34.478Z,946.28
2019-01-19T00:57:34.369Z,946.23
2019-01-19T00:58:34.364Z,946.24
2019-01-19T00:59:34.172Z,946.26
2019-01-19T01:00:34.045Z,946.21
2019-01-19T01:01:33.935Z,946.24
2019-01-19T01:02:33.828Z,946.23
2019-01-19T01:03:33.720Z,946.20
2019-01-19T01:04:33.631Z,946.22
2019-01-19T01:05:33.603Z,946.21
2019-01-19T01:06:33.394Z,946.21
2019-01-19T01:07:33.286Z,946.27
2019-01-19T01:08:33.177Z,946.23
2019-01-19T01:09:33.090Z,946.21
2019-01-19T01:10:32.979Z,946.25
2019-01-19T01:11:32.853Z,946.21
2019-01-19T01:12:32.852Z,946.19
2019-01-19T01:13:32.638Z,946.21
2019-01-19T01:14:32.554Z,946.15
2019-01-19T01:15:32.420Z,946.16
2019-01-19T01:16:32.309Z,946.12
2019-01-19T01:17:32.202Z,946.17
2019-01-19T01:18:32.093Z,946.15
2019-01-19T01:19:32.102Z,946.19
2019-01-19T01:20:31.878Z,946.15
2019-01-19T01:21:31.770Z,946.19
2019-01-19T01:22:31.668Z,946.19
2019-01-19T01:23:31.553Z,946.23
2019-01-19T01:24:31.467Z,946.19
2019-01-19T01:25:31.333Z,946.20
2019-01-19T01:26:31.227Z,946.18
2019-01-19T01:27:31.119Z,946.16
2019-01-19T01:28:31.006Z,946.22
2019-01-19T01:29:30.921Z,946.19
2019-01-19T01:30:30.791Z,946.12
2019-01-19T01:31:30.686Z,946.15
2019-01-19T01:32:30.580Z,946.15
2019-01-19T01:33:30.465Z,946.19
2019-01-19T01:34:30.360Z,946.15
2019-01-19T01:35:32.886Z,946.18
2019-01-19T01:36:30.144Z,946.15
2019-01-19T01:37:30.033Z,946.13
2019-01-19T01:38:29.924Z,946.08
2019-01-19T01:39:29.820Z,946.14
2019-01-19T01:40:29.729Z,946.11
2019-01-19T01:41:29.600Z,946.09
2019-01-19T01:42:29.490Z,946.10
2019-01-19T01:43:29.387Z,946.09
2019-01-19T01:44:29.274Z,946.11
2019-01-19T01:45:29.186Z,946.10
2019-01-19T01:46:29.057Z,946.09
2019-01-19T01:47:28.947Z,946.07
2019-01-19T01:48:28.838Z,946.11
2019-01-19T01:49:28.734Z,946.09
2019-01-19T01:50:28.651Z,946.10
2019-01-19T01:51:28.514Z,946.03
2019-01-19T01:52:28.406Z,946.06
2019-01-19T01:53:28.302Z,946.05
2019-01-19T01:54:28.192Z,946.05
2019-01-19T01:55:28.100Z,946.03
2019-01-19T01:56:27.970Z,946.01
2019-01-19T01:57:27.866Z,946.04
2019-01-19T01:58:27.759Z,946.10
2019-01-19T01:59:27.649Z,946.06
2019-01-19T02:00:27.559Z,946.09
2019-01-19T02:01:27.429Z,946.00
2019-01-19T02:02:27.321Z,946.07
2019-01-19T02:03:27.213Z,946.04
2019-01-19T02:04:27.103Z,946.00
2019-01-19T02:05:27.015Z,946.01
2019-01-19T02:06:26.888Z,946.03
2019-01-19T02:07:26.780Z,946.01
2019-01-19T02:08:26.670Z,945.98
2019-01-19T02:09:26.561Z,946.02
2019-01-19T02:10:26.478Z,945.99
2019-01-19T02:11:26.347Z,946.00
2019-01-19T02:12:26.241Z,945.96
2019-01-19T02:13:26.127Z,945.94
2019-01-19T02:14:26.020Z,945.96
2019-01-19T02:15:25.932Z,945.95
2019-01-19T02:16:25.800Z,945.93
2019-01-19T02:17:25.696Z,945.92
2019-01-19T02:18:25.583Z,945.92
2019-01-19T02:19:25.480Z,945.93
2019-01-19T02:20:25.387Z,945.92
2019-01-19T02:21:25.320Z,945.90
2019-01-19T02:22:25.152Z,945.91
2019-01-19T02:23:25.044Z,945.89
2019-01-19T02:24:24.935Z,945.90
2019-01-19T02:25:24.846Z,945.92
2019-01-19T02:26:24.716Z,945.91
2019-01-19T02:27:24.610Z,945.93
2019-01-19T02:28:24.527Z,945.85
2019-01-19T02:29:24.390Z,945.87
2019-01-19T02:30:25.107Z,945.88
2019-01-19T02:31:24.176Z,945.83
2019-01-19T02:32:24.067Z,945.87
2019-01-19T02:33:23.960Z,945.83
2019-01-19T02:34:23.846Z,945.83
2019-01-19T02:35:23.763Z,945.84
2019-01-19T02:36:23.630Z,945.88
2019-01-19T02:37:23.520Z,945.84
2019-01-19T02:38:23.533Z,945.80
2019-01-19T02:39:23.312Z,945.79
2019-01-19T02:40:23.226Z,945.84
2019-01-19T02:41:23.091Z,945.80
2019-01-19T02:42:22.979Z,945.83
2019-01-19T02:43:22.871Z,945.80
2019-01-19T02:44:22.762Z,945.82
2019-01-19T02:45:22.773Z,945.80
2019-01-19T02:46:22.545Z,945.84
2019-01-19T02:47:22.453Z,945.82
2019-01-19T02:48:22.326Z,945.80
2019-01-19T02:49:22.220Z,945.86
2019-01-19T02:50:22.131Z,945.84
2019-01-19T02:51:22.001Z,945.86
2019-01-19T02:52:21.992Z,945.83
2019-01-19T02:53:21.787Z,945.86
2019-01-19T02:54:21.676Z,945.83
2019-01-19T02:55:21.587Z,945.81
2019-01-19T02:56:21.459Z,945.85
2019-01-19T02:57:21.350Z,945.86
2019-01-19T02:58:21.240Z,945.85
2019-01-19T02:59:21.231Z,945.80
2019-01-19T03:00:21.049Z,945.78
2019-01-19T03:01:20.915Z,945.77
2019-01-19T03:02:20.807Z,945.79
2019-01-19T03:03:20.698Z,945.77
2019-01-19T03:04:20.598Z,945.76
2019-01-19T03:05:20.499Z,945.81
2019-01-19T03:06:20.472Z,945.75
2019-01-19T03:07:20.266Z,945.75
2019-01-19T03:08:20.154Z,945.80
2019-01-19T03:09:20.041Z,945.79
2019-01-19T03:10:19.960Z,945.80
2019-01-19T03:11:19.830Z,945.80
2019-01-19T03:12:19.722Z,945.79
2019-01-19T03:13:19.734Z,945.78
2019-01-19T03:14:19.504Z,945.77
2019-01-19T03:15:19.415Z,945.77
2019-01-19T03:16:19.288Z,945.79
2019-01-19T03:17:19.175Z,945.78
2019-01-19T03:18:19.071Z,945.74
2019-01-19T03:19:18.961Z,945.74
2019-01-19T03:20:18.955Z,945.75
2019-01-19T03:21:18.764Z,945.74
2019-01-19T03:22:19.533Z,945.73
2019-01-19T03:23:18.527Z,945.72
2019-01-19T03:24:18.416Z,945.73
2019-01-19T03:25:18.309Z,945.74
2019-01-19T03:26:18.222Z,945.73
2019-01-19T03:27:18.188Z,945.76
2019-01-19T03:28:17.980Z,945.75
2019-01-19T03:29:17.875Z,945.72
2019-01-19T03:30:17.764Z,945.72
2019-01-19T03:31:17.683Z,945.74
2019-01-19T03:32:17.548Z,945.73
2019-01-19T03:33:17.437Z,945.70
2019-01-19T03:34:17.430Z,945.74
2019-01-19T03:35:17.221Z,945.71
2019-01-19T03:36:17.131Z,945.73
2019-01-19T03:37:17.005Z,945.69
2019-01-19T03:38:16.895Z,945.70
2019-01-19T03:39:16.786Z,945.68
2019-01-19T03:40:16.678Z,945.67
2019-01-19T03:41:16.592Z,945.69
2019-01-19T03:42:16.461Z,945.65
2019-01-19T03:43:16.349Z,945.65
2019-01-19T03:44:16.240Z,945.63
2019-01-19T03:45:16.130Z,945.66
2019-01-19T03:46:16.044Z,945.69
2019-01-19T03:47:15.914Z,945.65
2019-01-19T03:48:15.905Z,945.65
2019-01-19T03:49:15.695Z,945.60
2019-01-19T03:50:15.592Z,945.63
2019-01-19T03:51:15.498Z,945.65
2019-01-19T03:52:15.369Z,945.67
2019-01-19T03:53:15.259Z,945.65
2019-01-19T03:54:15.149Z,945.66
2019-01-19T03:55:15.045Z,945.65
2019-01-19T03:56:14.955Z,945.66
2019-01-19T03:57:14.830Z,945.66
2019-01-19T03:58:14.717Z,945.65
2019-01-19T03:59:14.608Z,945.66
2019-01-19T04:00:14.498Z,945.64
2019-01-19T04:01:14.410Z,945.66
2019-01-19T04:02:14.283Z,945.63
2019-01-19T04:03:14.176Z,945.61
2019-01-19T04:04:14.064Z,945.63
2019-01-19T04:05:13.956Z,945.61
2019-01-19T04:06:13.869Z,945.69
2019-01-19T04:07:13.739Z,945.68
2019-01-19T04:08:13.623Z,945.67
2019-01-19T04:09:13.518Z,945.65
2019-01-19T04:10:13.410Z,945.64
2019-01-19T04:11:13.321Z,945.65
2019-01-19T04:12:13.190Z,945.63
2019-01-19T04:13:13.083Z,945.65
2019-01-19T04:14:12.977Z,945.66
2019-01-19T04:15:12.866Z,945.60
2019-01-19T04:16:12.784Z,945.61
2019-01-19T04:17:12.648Z,945.58
2019-01-19T04:18:12.542Z,945.60
2019-01-19T04:19:12.430Z,945.56
2019-01-19T04:20:12.321Z,945.63
2019-01-19T04:21:12.235Z,945.58
2019-01-19T04:22:12.104Z,945.56
2019-01-19T04:23:11.999Z,945.60
2019-01-19T04:24:11.891Z,945.61
2019-01-19T04:25:11.782Z,945.55
2019-01-19T04:26:11.696Z,945.56
2019-01-19T04:27:11.568Z,945.59
2019-01-19T04:28:11.456Z,945.56
2019-01-19T04:29:11.349Z,945.57
2019-01-19T04:30:11.243Z,945.54
2019-01-19T04:31:11.152Z,945.53
2019-01-19T04:32:11.026Z,945.56
2019-01-19T04:33:10.915Z,945.62
2019-01-19T04:34:10.810Z,945.52
2019-01-19T04:35:10.699Z,945.64
2019-01-19T04:36:10.609Z,945.59
2019-01-19T04:37:10.492Z,945.56
2019-01-19T04:38:10.375Z,945.47
2019-01-19T04:39:10.278Z,945.51
2019-01-19T04:40:10.161Z,945.52
2019-01-19T04:41:10.075Z,945.57
2019-01-19T04:42:09.945Z,945.51
2019-01-19T04:43:09.843Z,945.49
2019-01-19T04:44:09.733Z,945.51
2019-01-19T04:45:09.621Z,945.55
2019-01-19T04:46:09.541Z,945.60
2019-01-19T04:47:09.407Z,945.58
2019-01-19T04:48:09.299Z,945.56
2019-01-19T04:49:09.193Z,945.53
2019-01-19T04:50:09.085Z,945.54
2019-01-19T04:51:09.000Z,945.58
2019-01-19T04:52:08.978Z,945.52
2019-01-19T04:53:08.764Z,945.59
2019-01-19T04:54:08.662Z,945.65
2019-01-19T04:55:08.554Z,945.55
2019-01-19T04:56:08.465Z,945.61
2019-01-19T04:57:08.335Z,945.62
2019-01-19T04:58:08.228Z,945.57
2019-01-19T04:59:08.237Z,945.55
2019-01-19T05:00:08.012Z,945.56
2019-01-19T05:01:07.909Z,945.56
2019-01-19T05:02:07.818Z,945.58
2019-01-19T05:03:07.691Z,945.56
2019-01-19T05:04:07.586Z,945.57
2019-01-19T05:05:07.478Z,945.61
2019-01-19T05:06:11.938Z,945.55
2019-01-19T05:07:07.287Z,945.54
2019-01-19T05:08:07.157Z,945.57
2019-01-19T05:09:07.048Z,945.56
2019-01-19T05:10:06.944Z,945.61
2019-01-19T05:11:06.837Z,945.55
2019-01-19T05:12:06.750Z,945.55
2019-01-19T05:13:06.725Z,945.56
2019-01-19T05:14:06.518Z,945.62
2019-01-19T05:15:06.408Z,945.47
2019-01-19T05:16:06.302Z,945.55
2019-01-19T05:17:06.224Z,945.54
2019-01-19T05:18:06.087Z,945.56
2019-01-19T05:19:05.980Z,945.50
2019-01-19T05:20:05.973Z,945.71
2019-01-19T05:21:05.767Z,945.56
2019-01-19T05:22:05.679Z,945.56
2019-01-19T05:23:05.554Z,945.53
2019-01-19T05:24:05.445Z,945.59
2019-01-19T05:25:05.339Z,945.59
2019-01-19T05:26:05.233Z,945.62
2019-01-19T05:27:05.251Z,945.54
2019-01-19T05:28:05.017Z,945.54
2019-01-19T05:29:04.911Z,945.56
2019-01-19T05:30:04.803Z,945.56
2019-01-19T05:31:04.696Z,945.57
2019-01-19T05:32:04.611Z,945.58
2019-01-19T05:33:04.479Z,945.63
2019-01-19T05:34:04.473Z,945.57
2019-01-19T05:35:04.270Z,945.53
2019-01-19T05:36:04.163Z,945.50
2019-01-19T05:37:04.075Z,945.55
2019-01-19T05:38:03.950Z,945.49
2019-01-19T05:39:03.852Z,945.52
2019-01-19T05:40:03.735Z,945.51
2019-01-19T05:41:03.733Z,945.58
2019-01-19T05:42:03.544Z,945.51
2019-01-19T05:43:03.419Z,945.51
2019-01-19T05:44:03.305Z,945.54
2019-01-19T05:45:03.202Z,945.53
2019-01-19T05:46:03.093Z,945.55
2019-01-19T05:47:03.003Z,945.49
2019-01-19T05:48:02.983Z,945.47
2019-01-19T05:49:02.780Z,945.51
2019-01-19T05:50:02.667Z,945.51
2019-01-19T05:51:02.561Z,945.58
2019-01-19T05:52:02.473Z,945.47
2019-01-19T05:53:02.358Z,945.51
2019-01-19T05:54:02.238Z,945.53
2019-01-19T05:55:02.131Z,945.48
2019-01-19T05:56:02.030Z,945.64
2019-01-19T05:57:01.937Z,945.58
2019-01-19T05:58:01.810Z,945.62
2019-01-19T05:59:01.702Z,945.52
2019-01-19T06:00:01.596Z,945.55
2019-01-19T06:01:01.490Z,945.55
2019-01-19T06:02:01.412Z,945.49
2019-01-19T06:03:01.277Z,945.58
2019-01-19T06:04:01.170Z,945.50
2019-01-19T06:05:01.060Z,945.52
2019-01-19T06:06:00.956Z,945.46
2019-01-19T06:07:00.875Z,945.56
2019-01-19T06:08:00.825Z,945.41
2019-01-19T06:09:00.635Z,945.47
2019-01-19T06:10:00.527Z,945.54
2019-01-19T06:11:00.427Z,945.47
2019-01-19T06:12:00.336Z,945.50
2019-01-19T06:13:00.210Z,945.54
2019-01-19T06:14:00.107Z,945.56
2019-01-19T06:14:59.996Z,945.52
2019-01-19T06:15:59.898Z,945.44
2019-01-19T06:16:59.803Z,945.46
2019-01-19T06:17:59.673Z,945.51
2019-01-19T06:18:59.646Z,945.38
2019-01-19T06:19:59.460Z,945.42
2019-01-19T06:20:59.352Z,945.46
2019-01-19T06:21:59.265Z,945.51
2019-01-19T06:22:59.142Z,945.43
2019-01-19T06:23:59.032Z,945.55
2019-01-19T06:24:58.924Z,945.54
2019-01-19T06:25:58.818Z,945.52
2019-01-19T06:26:58.737Z,945.54
2019-01-19T06:27:58.605Z,945.49
2019-01-19T06:28:58.501Z,945.47
2019-01-19T06:29:58.392Z,945.49
2019-01-19T06:30:58.284Z,945.62
2019-01-19T06:31:58.198Z,945.49
2019-01-19T06:32:58.072Z,945.50
2019-01-19T06:33:57.971Z,945.50
2019-01-19T06:34:57.857Z,945.50
2019-01-19T06:35:57.759Z,945.42
2019-01-19T06:36:57.670Z,945.51
2019-01-19T06:37:57.538Z,945.53
2019-01-19T06:38:57.449Z,945.49
2019-01-19T06:39:57.324Z,945.50
2019-01-19T06:40:57.218Z,945.56
2019-01-19T06:41:57.131Z,945.49
2019-01-19T06:42:57.003Z,945.50
2019-01-19T06:43:56.895Z,945.45
2019-01-19T06:44:56.790Z,945.48
2019-01-19T06:45:56.684Z,945.52
2019-01-19T06:46:56.600Z,945.53
2019-01-19T06:47:56.468Z,945.44
2019-01-19T06:48:56.418Z,945.53
2019-01-19T06:49:56.258Z,945.48
2019-01-19T06:50:56.153Z,945.45
2019-01-19T06:51:56.045Z,945.45
2019-01-19T06:52:56.061Z,945.45
2019-01-19T06:54:01.583Z,945.44
2019-01-19T06:54:55.736Z,945.42
2019-01-19T06:55:55.615Z,945.46
2019-01-19T06:56:55.510Z,945.46
2019-01-19T06:57:55.424Z,945.43
2019-01-19T06:58:55.453Z,945.48
2019-01-19T06:59:55.188Z,945.44
2019-01-19T07:00:55.083Z,945.50
2019-01-19T07:01:54.977Z,945.49
2019-01-19T07:02:54.913Z,945.45
2019-01-19T07:03:54.762Z,945.57
2019-01-19T07:04:54.654Z,945.52
2019-01-19T07:05:54.548Z,945.48
2019-01-19T07:06:54.443Z,945.51
2019-01-19T07:07:54.356Z,945.49
2019-01-19T07:08:54.230Z,945.58
2019-01-19T07:09:54.121Z,945.48
2019-01-19T07:10:54.014Z,945.53
2019-01-19T07:11:53.910Z,945.49
2019-01-19T07:12:53.820Z,945.56
2019-01-19T07:13:53.696Z,945.53
2019-01-19T07:14:53.586Z,945.57
2019-01-19T07:15:53.480Z,945.56
2019-01-19T07:16:53.393Z,945.54
2019-01-19T07:17:53.285Z,945.54
2019-01-19T07:18:53.158Z,945.52
2019-01-19T07:19:53.156Z,945.47
2019-01-19T07:20:52.949Z,945.50
2019-01-19T07:21:52.841Z,945.55
2019-01-19T07:22:52.757Z,945.56
2019-01-19T07:23:52.629Z,945.46
2019-01-19T07:24:52.520Z,945.49
2019-01-19T07:25:52.413Z,945.46
2019-01-19T07:26:52.305Z,945.50
2019-01-19T07:27:52.222Z,945.45
2019-01-19T07:28:52.097Z,945.53
2019-01-19T07:29:51.989Z,945.47
2019-01-19T07:30:51.883Z,945.47
2019-01-19T07:31:51.773Z,945.51
2019-01-19T07:32:51.687Z,945.51
2019-01-19T07:33:51.664Z,945.53
2019-01-19T07:34:51.455Z,945.52
2019-01-19T07:35:51.347Z,945.49
2019-01-19T07:36:51.242Z,945.53
2019-01-19T07:37:51.158Z,945.60
2019-01-19T07:38:51.031Z,945.53
2019-01-19T07:39:50.926Z,945.58
2019-01-19T07:40:50.947Z,945.58
2019-01-19T07:41:50.712Z,945.57
2019-01-19T07:42:50.623Z,945.59
2019-01-19T07:43:50.498Z,945.58
2019-01-19T07:44:50.390Z,945.55
2019-01-19T07:45:50.283Z,945.63
2019-01-19T07:46:56.028Z,945.68
2019-01-19T07:47:50.200Z,945.63
2019-01-19T07:48:49.980Z,945.70
2019-01-19T07:49:49.863Z,945.66
2019-01-19T07:50:49.751Z,945.65
2019-01-19T07:51:49.650Z,945.62
2019-01-19T07:52:49.560Z,945.64
2019-01-19T07:53:49.433Z,945.65
2019-01-19T07:54:49.427Z,945.65
2019-01-19T07:55:49.225Z,945.63
2019-01-19T07:56:49.116Z,945.58
2019-01-19T07:57:49.042Z,945.70
2019-01-19T07:58:48.905Z,945.63
2019-01-19T07:59:48.795Z,945.58
2019-01-19T08:00:48.691Z,945.64
2019-01-19T08:01:48.685Z,945.67
2019-01-19T08:02:48.502Z,945.66
2019-01-19T08:03:48.371Z,945.67
2019-01-19T08:04:48.266Z,945.75
2019-01-19T08:05:48.163Z,945.68
2019-01-19T08:06:48.055Z,945.69
2019-01-19T08:07:47.966Z,945.72
2019-01-19T08:08:47.947Z,945.75
2019-01-19T08:09:47.736Z,945.71
2019-01-19T08:10:47.631Z,945.83
2019-01-19T08:11:47.523Z,945.82
2019-01-19T08:12:47.440Z,945.83
2019-01-19T08:13:47.314Z,945.82
2019-01-19T08:14:47.207Z,945.85
2019-01-19T08:15:47.100Z,945.87
2019-01-19T08:16:46.995Z,945.88
2019-01-19T08:17:46.911Z,945.88
2019-01-19T08:18:46.785Z,945.89
2019-01-19T08:19:46.683Z,945.89
2019-01-19T08:20:46.578Z,945.94
2019-01-19T08:21:46.472Z,945.94
2019-01-19T08:22:46.494Z,946.00
2019-01-19T08:23:46.263Z,945.97
2019-01-19T08:24:46.163Z,946.05
2019-01-19T08:25:46.057Z,946.02
2019-01-19T08:26:45.952Z,946.01
2019-01-19T08:27:45.871Z,946.01
2019-01-19T08:28:45.744Z,945.97
2019-01-19T08:29:45.646Z,945.94
2019-01-19T08:30:45.541Z,945.97
2019-01-19T08:31:45.436Z,945.95
2019-01-19T08:32:45.335Z,945.96
2019-01-19T08:33:45.251Z,945.99
2019-01-19T08:34:46.598Z,946.00
2019-01-19T08:35:45.024Z,945.98
2019-01-19T08:36:45.024Z,945.83
2019-01-19T08:37:44.822Z,945.90
2019-01-19T08:38:44.772Z,945.97
2019-01-19T08:39:44.616Z,945.75
2019-01-19T08:40:44.514Z,945.83
2019-01-19T08:41:44.416Z,945.85
2019-01-19T08:42:44.310Z,945.85
2019-01-19T08:43:44.325Z,945.85
2019-01-19T08:44:44.103Z,945.95
2019-01-19T08:45:44.006Z,945.99
2019-01-19T08:46:43.901Z,946.10
2019-01-19T08:47:43.812Z,946.12
2019-01-19T08:48:43.719Z,946.12
2019-01-19T08:49:43.595Z,946.12
2019-01-19T08:50:43.755Z,946.19
2019-01-19T08:51:43.395Z,946.03
2019-01-19T08:52:43.288Z,946.11
2019-01-19T08:53:43.207Z,946.13
2019-01-19T08:54:43.084Z,946.12
2019-01-19T08:55:42.983Z,946.12
2019-01-19T08:56:42.886Z,946.05
2019-01-19T08:57:42.778Z,946.22
2019-01-19T08:58:42.700Z,946.25
2019-01-19T08:59:42.579Z,946.11
2019-01-19T09:00:42.494Z,946.26
2019-01-19T09:01:42.379Z,946.31
2019-01-19T09:02:42.276Z,946.11
2019-01-19T09:03:42.196Z,946.36
2019-01-19T09:04:42.177Z,946.18
2019-01-19T09:05:41.976Z,946.00
2019-01-19T09:06:41.874Z,946.09
2019-01-19T09:07:41.774Z,946.06
2019-01-19T09:08:41.700Z,946.15
2019-01-19T09:09:41.571Z,946.20
2019-01-19T09:10:41.480Z,946.10
2019-01-19T09:11:41.477Z,946.25
2019-01-19T09:12:41.272Z,946.22
2019-01-19T09:13:41.191Z,946.09
2019-01-19T09:14:41.071Z,946.13
2019-01-19T09:15:40.971Z,946.16
2019-01-19T09:16:41.775Z,946.22
2019-01-19T09:17:40.771Z,946.10
2019-01-19T09:18:40.792Z,946.21
2019-01-19T09:19:40.568Z,946.14
2019-01-19T09:20:40.470Z,946.19
2019-01-19T09:21:40.377Z,946.12
2019-01-19T09:22:40.271Z,946.16
2019-01-19T09:23:40.187Z,946.26
2019-01-19T09:24:40.067Z,946.16
2019-01-19T09:25:40.070Z,946.15
2019-01-19T09:26:39.867Z,946.22
2019-01-19T09:27:39.771Z,946.08
2019-01-19T09:28:39.686Z,946.17
2019-01-19T09:29:39.585Z,946.07
2019-01-19T09:30:39.462Z,946.13
2019-01-19T09:31:39.365Z,946.14
2019-01-19T09:32:39.357Z,946.28
2019-01-19T09:33:39.185Z,946.16
2019-01-19T09:34:39.060Z,946.16
2019-01-19T09:35:38.957Z,946.27
2019-01-19T09:36:38.858Z,946.32
2019-01-19T09:37:40.965Z,946.20
2019-01-19T09:38:38.677Z,946.25
2019-01-19T09:39:38.652Z,946.07
2019-01-19T09:40:38.453Z,946.36
2019-01-19T09:41:38.352Z,946.25
2019-01-19T09:42:38.253Z,946.18
2019-01-19T09:43:38.170Z,946.29
2019-01-19T09:44:38.049Z,946.10
2019-01-19T09:45:37.947Z,946.04
2019-01-19T09:46:37.953Z,946.22
2019-01-19T09:47:37.748Z,946.05
2019-01-19T09:48:37.662Z,946.02
2019-01-19T09:49:37.544Z,945.92
2019-01-19T09:50:39.065Z,946.17
2019-01-19T09:51:37.346Z,946.09
2019-01-19T09:52:37.241Z,945.95
2019-01-19T09:53:37.262Z,946.04
2019-01-19T09:54:37.037Z,946.07
2019-01-19T09:55:36.942Z,946.03
2019-01-19T09:56:36.836Z,945.99
2019-01-19T09:57:37.103Z,945.97
2019-01-19T09:58:36.665Z,946.06
2019-01-19T09:59:36.528Z,946.08
2019-01-19T10:00:37.834Z,946.01
2019-01-19T10:01:36.331Z,946.06
2019-01-19T10:02:36.228Z,946.07
2019-01-19T10:03:36.145Z,946.02
2019-01-19T10:04:36.034Z,945.94
2019-01-19T10:05:35.925Z,945.94
2019-01-19T10:06:35.826Z,946.00
2019-01-19T10:07:35.838Z,946.02
2019-01-19T10:08:35.649Z,945.99
2019-01-19T10:09:35.525Z,945.99
2019-01-19T10:10:35.423Z,946.02
2019-01-19T10:11:35.325Z,946.03
2019-01-19T10:12:35.227Z,946.08
2019-01-19T10:13:35.152Z,946.08
2019-01-19T10:14:35.132Z,946.18
2019-01-19T10:15:34.927Z,946.14
2019-01-19T10:16:34.830Z,946.20
2019-01-19T10:17:34.730Z,946.09
2019-01-19T10:18:34.635Z,946.10
2019-01-19T10:19:34.556Z,946.27
2019-01-19T10:20:34.434Z,946.11
2019-01-19T10:21:34.438Z,946.14
2019-01-19T10:22:34.239Z,946.17
2019-01-19T10:23:34.141Z,946.17
2019-01-19T10:24:34.063Z,946.24
2019-01-19T10:25:33.949Z,946.38
2019-01-19T10:26:33.860Z,946.26
2019-01-19T10:27:37.505Z,946.33
2019-01-19T10:28:33.753Z,946.42
2019-01-19T10:29:33.573Z,946.33
2019-01-19T10:30:33.457Z,946.38
2019-01-19T10:31:33.353Z,946.39
2019-01-19T10:32:33.257Z,946.44
2019-01-19T10:33:33.162Z,946.32
2019-01-19T10:34:33.081Z,946.41
2019-01-19T10:35:33.065Z,946.44
2019-01-19T10:36:32.869Z,946.34
2019-01-19T10:37:32.772Z,946.33
2019-01-19T10:38:32.673Z,946.42
2019-01-19T10:39:32.591Z,946.33
2019-01-19T10:40:32.478Z,946.32
2019-01-19T10:41:32.384Z,946.33
2019-01-19T10:42:32.384Z,946.33
2019-01-19T10:43:32.183Z,946.41
2019-01-19T10:44:32.111Z,946.36
2019-01-19T10:45:31.990Z,946.40
2019-01-19T10:46:31.892Z,946.35
2019-01-19T10:47:31.794Z,946.30
2019-01-19T10:48:31.700Z,946.26
2019-01-19T10:49:31.725Z,946.32
2019-01-19T10:50:31.504Z,946.34
2019-01-19T10:51:31.406Z,946.34
2019-01-19T10:52:31.310Z,946.28
2019-01-19T10:53:31.215Z,946.24
2019-01-19T10:54:31.137Z,946.31
2019-01-19T10:55:31.020Z,946.24
2019-01-19T10:56:30.922Z,946.31
2019-01-19T10:57:30.827Z,946.34
2019-01-19T10:58:30.729Z,946.20
2019-01-19T10:59:30.656Z,946.19
2019-01-19T11:00:30.537Z,946.19
2019-01-19T11:01:30.441Z,946.12
2019-01-19T11:02:30.348Z,946.19
2019-01-19T11:03:30.246Z,946.05
2019-01-19T11:04:30.170Z,946.10
2019-01-19T11:05:30.056Z,946.23
2019-01-19T11:06:29.967Z,946.22
2019-01-19T11:07:29.861Z,946.13
2019-01-19T11:08:29.762Z,946.22
2019-01-19T11:09:29.689Z,946.12
2019-01-19T11:10:29.573Z,946.18
2019-01-19T11:11:29.472Z,946.13
2019-01-19T11:12:29.378Z,946.26
2019-01-19T11:13:29.283Z,946.20
2019-01-19T11:14:29.206Z,946.20
2019-01-19T11:15:29.127Z,946.16
2019-01-19T11:16:28.992Z,946.21
2019-01-19T11:17:28.899Z,946.06
2019-01-19T11:18:28.799Z,946.06
2019-01-19T11:19:28.722Z,946.09
2019-01-19T11:20:28.606Z,945.97
2019-01-19T11:21:28.516Z,946.01
2019-01-19T11:22:28.419Z,945.99
2019-01-19T11:23:28.316Z,945.92
2019-01-19T11:24:28.240Z,945.90
2019-01-19T11:25:28.124Z,945.87
2019-01-19T11:26:28.028Z,946.06
2019-01-19T11:27:27.931Z,945.79
2019-01-19T11:28:27.834Z,945.79
2019-01-19T11:29:27.760Z,945.75
2019-01-19T11:30:27.642Z,945.77
2019-01-19T11:31:27.555Z,945.66
2019-01-19T11:32:27.456Z,945.74
2019-01-19T11:33:27.354Z,945.58
2019-01-19T11:34:27.279Z,945.56
2019-01-19T11:35:27.162Z,945.54
2019-01-19T11:36:27.089Z,945.53
2019-01-19T11:37:26.969Z,945.60
2019-01-19T11:38:26.873Z,945.53
2019-01-19T11:39:26.797Z,945.51
2019-01-19T11:40:26.683Z,945.43
2019-01-19T11:41:26.583Z,945.50
2019-01-19T11:42:26.490Z,945.51
2019-01-19T11:43:26.391Z,945.41
2019-01-19T11:44:26.318Z,945.44
2019-01-19T11:45:26.205Z,945.47
2019-01-19T11:46:26.110Z,945.43
2019-01-19T11:47:26.008Z,945.44
2019-01-19T11:48:25.921Z,945.45
2019-01-19T11:49:25.839Z,945.42
2019-01-19T11:50:25.730Z,945.51
2019-01-19T11:51:25.677Z,945.44
2019-01-19T11:52:25.530Z,945.41
2019-01-19T11:53:25.433Z,945.41
2019-01-19T11:54:25.369Z,945.44
2019-01-19T11:55:25.256Z,945.27
2019-01-19T11:56:25.151Z,945.36
2019-01-19T11:57:25.050Z,945.36
2019-01-19T11:58:24.953Z,945.30
2019-01-19T11:59:24.879Z,945.28
2019-01-19T12:00:24.773Z,945.25
2019-01-19T12:01:24.668Z,945.25
2019-01-19T12:02:24.570Z,945.19
2019-01-19T12:03:24.480Z,945.30
2019-01-19T12:04:24.381Z,945.21
2019-01-19T12:05:24.306Z,945.15
2019-01-19T12:06:24.193Z,945.25
2019-01-19T12:07:24.091Z,945.10
2019-01-19T12:08:23.995Z,945.07
2019-01-19T12:09:23.900Z,945.11
2019-01-19T12:10:23.828Z,945.10
2019-01-19T12:11:23.714Z,945.18
2019-01-19T12:12:23.616Z,945.17
2019-01-19T12:13:23.517Z,945.13
2019-01-19T12:14:23.425Z,945.22
2019-01-19T12:15:23.358Z,945.16
2019-01-19T12:16:23.230Z,945.14
2019-01-19T12:17:23.432Z,945.17
2019-01-19T12:18:23.036Z,945.14
2019-01-19T12:19:22.937Z,945.04
2019-01-19T12:20:22.862Z,945.12
2019-01-19T12:21:22.742Z,945.06
2019-01-19T12:22:22.650Z,945.07
2019-01-19T12:23:22.551Z,945.13
2019-01-19T12:24:22.456Z,945.03
2019-01-19T12:25:22.382Z,945.02
2019-01-19T12:26:22.261Z,945.07
2019-01-19T12:27:22.161Z,945.01